sensor_id;sensor_type;location;lat;lon;timestamp;P1;durP1;ratioP1;P2;durP2;ratioP2
26319;SDS011;14024;52.226;5.200;2023-07-29T00:01:22;3.65;;;2.15;;
26319;SDS011;14024;52.226;5.200;2023-07-29T00:03:48;5.28;;;2.40;;
26319;SDS011;14024;52.226;5.200;2023-07-29T00:06:14;7.22;;;2.40;;
26319;SDS011;14024;52.226;5.200;2023-07-29T00:08:40;4.70;;;2.10;;
26319;SDS011;14024;52.226;5.200;2023-07-29T00:11:06;7.97;;;2.60;;
26319;SDS011;14024;52.226;5.200;2023-07-29T00:13:32;5.80;;;2.13;;
26319;SDS011;14024;52.226;5.200;2023-07-29T00:15:58;3.40;;;2.10;;
26319;SDS011;14024;52.226;5.200;2023-07-29T00:18:24;4.57;;;2.75;;
26319;SDS011;14024;52.226;5.200;2023-07-29T00:20:50;3.05;;;1.73;;
26319;SDS011;14024;52.226;5.200;2023-07-29T00:23:17;3.90;;;2.10;;
26319;SDS011;14024;52.226;5.200;2023-07-29T00:25:46;5.90;;;2.00;;
26319;SDS011;14024;52.226;5.200;2023-07-29T00:28:12;3.90;;;1.88;;
26319;SDS011;14024;52.226;5.200;2023-07-29T00:30:38;6.57;;;2.10;;
26319;SDS011;14024;52.226;5.200;2023-07-29T00:33:04;8.48;;;2.05;;
26319;SDS011;14024;52.226;5.200;2023-07-29T00:35:30;4.68;;;2.50;;
26319;SDS011;14024;52.226;5.200;2023-07-29T00:37:56;6.22;;;2.00;;
26319;SDS011;14024;52.226;5.200;2023-07-29T00:40:22;4.45;;;2.28;;
26319;SDS011;14024;52.226;5.200;2023-07-29T00:42:49;3.63;;;2.08;;
26319;SDS011;14024;52.226;5.200;2023-07-29T00:45:15;6.10;;;2.15;;
26319;SDS011;14024;52.226;5.200;2023-07-29T00:47:42;5.95;;;2.42;;
26319;SDS011;14024;52.226;5.200;2023-07-29T00:50:09;6.28;;;2.53;;
26319;SDS011;14024;52.226;5.200;2023-07-29T00:52:35;7.72;;;3.28;;
26319;SDS011;14024;52.226;5.200;2023-07-29T00:55:01;8.45;;;2.75;;
26319;SDS011;14024;52.226;5.200;2023-07-29T00:57:29;6.30;;;2.45;;
26319;SDS011;14024;52.226;5.200;2023-07-29T00:59:55;7.35;;;2.20;;
26319;SDS011;14024;52.226;5.200;2023-07-29T01:02:21;5.10;;;2.50;;
26319;SDS011;14024;52.226;5.200;2023-07-29T01:04:54;4.40;;;2.25;;
26319;SDS011;14024;52.226;5.200;2023-07-29T01:07:33;9.93;;;2.53;;
26319;SDS011;14024;52.226;5.200;2023-07-29T01:12:51;3.05;;;1.90;;
26319;SDS011;14024;52.226;5.200;2023-07-29T01:16:04;3.88;;;2.35;;
26319;SDS011;14024;52.226;5.200;2023-07-29T01:18:11;6.22;;;2.80;;
26319;SDS011;14024;52.226;5.200;2023-07-29T01:20:39;6.35;;;2.40;;
26319;SDS011;14024;52.226;5.200;2023-07-29T01:23:05;7.72;;;2.78;;
26319;SDS011;14024;52.226;5.200;2023-07-29T01:25:31;4.85;;;2.55;;
26319;SDS011;14024;52.226;5.200;2023-07-29T01:27:57;6.78;;;2.47;;
26319;SDS011;14024;52.226;5.200;2023-07-29T01:30:31;8.70;;;2.58;;
26319;SDS011;14024;52.226;5.200;2023-07-29T01:33:34;4.90;;;2.30;;
26319;SDS011;14024;52.226;5.200;2023-07-29T01:35:54;7.15;;;2.40;;
26319;SDS011;14024;52.226;5.200;2023-07-29T01:38:33;9.25;;;2.40;;
26319;SDS011;14024;52.226;5.200;2023-07-29T01:41:03;5.30;;;2.67;;
26319;SDS011;14024;52.226;5.200;2023-07-29T01:43:29;5.95;;;2.65;;
26319;SDS011;14024;52.226;5.200;2023-07-29T01:45:56;5.70;;;3.00;;
26319;SDS011;14024;52.226;5.200;2023-07-29T01:48:22;5.55;;;2.53;;
26319;SDS011;14024;52.226;5.200;2023-07-29T01:50:48;11.25;;;3.25;;
26319;SDS011;14024;52.226;5.200;2023-07-29T01:53:14;7.22;;;3.17;;
26319;SDS011;14024;52.226;5.200;2023-07-29T01:55:41;8.07;;;3.67;;
26319;SDS011;14024;52.226;5.200;2023-07-29T01:58:07;5.93;;;2.83;;
26319;SDS011;14024;52.226;5.200;2023-07-29T02:00:33;7.78;;;3.50;;
26319;SDS011;14024;52.226;5.200;2023-07-29T02:02:59;6.15;;;3.40;;
26319;SDS011;14024;52.226;5.200;2023-07-29T02:05:25;5.40;;;3.22;;
26319;SDS011;14024;52.226;5.200;2023-07-29T02:07:51;10.32;;;3.67;;
26319;SDS011;14024;52.226;5.200;2023-07-29T02:10:19;11.30;;;4.25;;
26319;SDS011;14024;52.226;5.200;2023-07-29T02:12:45;6.53;;;4.35;;
26319;SDS011;14024;52.226;5.200;2023-07-29T02:15:11;8.20;;;4.10;;
26319;SDS011;14024;52.226;5.200;2023-07-29T02:17:37;9.95;;;4.95;;
26319;SDS011;14024;52.226;5.200;2023-07-29T02:20:03;9.20;;;4.40;;
26319;SDS011;14024;52.226;5.200;2023-07-29T02:22:29;8.70;;;5.10;;
26319;SDS011;14024;52.226;5.200;2023-07-29T02:24:55;10.90;;;4.93;;
26319;SDS011;14024;52.226;5.200;2023-07-29T02:27:21;14.35;;;5.28;;
26319;SDS011;14024;52.226;5.200;2023-07-29T02:29:50;14.13;;;4.97;;
26319;SDS011;14024;52.226;5.200;2023-07-29T02:32:16;10.63;;;4.47;;
26319;SDS011;14024;52.226;5.200;2023-07-29T02:34:42;11.73;;;5.35;;
26319;SDS011;14024;52.226;5.200;2023-07-29T02:37:08;8.40;;;5.47;;
26319;SDS011;14024;52.226;5.200;2023-07-29T02:39:34;12.18;;;4.72;;
26319;SDS011;14024;52.226;5.200;2023-07-29T02:42:00;10.15;;;5.10;;
26319;SDS011;14024;52.226;5.200;2023-07-29T02:44:26;14.25;;;5.05;;
26319;SDS011;14024;52.226;5.200;2023-07-29T02:46:52;15.25;;;5.22;;
26319;SDS011;14024;52.226;5.200;2023-07-29T02:49:20;12.10;;;4.88;;
26319;SDS011;14024;52.226;5.200;2023-07-29T02:51:46;10.55;;;4.78;;
26319;SDS011;14024;52.226;5.200;2023-07-29T02:54:12;11.85;;;5.30;;
26319;SDS011;14024;52.226;5.200;2023-07-29T02:56:38;13.02;;;4.72;;
26319;SDS011;14024;52.226;5.200;2023-07-29T02:59:04;11.18;;;4.90;;
26319;SDS011;14024;52.226;5.200;2023-07-29T03:01:30;12.88;;;5.32;;
26319;SDS011;14024;52.226;5.200;2023-07-29T03:03:57;9.18;;;4.70;;
26319;SDS011;14024;52.226;5.200;2023-07-29T03:06:23;13.57;;;4.88;;
26319;SDS011;14024;52.226;5.200;2023-07-29T03:08:49;9.80;;;4.30;;
26319;SDS011;14024;52.226;5.200;2023-07-29T03:11:16;10.43;;;4.50;;
26319;SDS011;14024;52.226;5.200;2023-07-29T03:13:42;13.30;;;5.38;;
26319;SDS011;14024;52.226;5.200;2023-07-29T03:16:12;12.88;;;4.85;;
26319;SDS011;14024;52.226;5.200;2023-07-29T03:18:39;15.15;;;5.97;;
26319;SDS011;14024;52.226;5.200;2023-07-29T03:21:05;11.38;;;5.22;;
26319;SDS011;14024;52.226;5.200;2023-07-29T03:23:32;12.30;;;4.97;;
26319;SDS011;14024;52.226;5.200;2023-07-29T03:25:59;10.88;;;5.13;;
26319;SDS011;14024;52.226;5.200;2023-07-29T03:28:27;11.43;;;4.95;;
26319;SDS011;14024;52.226;5.200;2023-07-29T03:30:57;13.05;;;5.45;;
26319;SDS011;14024;52.226;5.200;2023-07-29T03:33:24;8.95;;;5.55;;
26319;SDS011;14024;52.226;5.200;2023-07-29T03:35:50;14.48;;;5.22;;
26319;SDS011;14024;52.226;5.200;2023-07-29T03:38:16;12.02;;;5.68;;
26319;SDS011;14024;52.226;5.200;2023-07-29T03:40:43;8.02;;;4.55;;
26319;SDS011;14024;52.226;5.200;2023-07-29T03:43:09;18.55;;;4.95;;
26319;SDS011;14024;52.226;5.200;2023-07-29T03:45:35;11.13;;;4.53;;
26319;SDS011;14024;52.226;5.200;2023-07-29T03:48:01;8.20;;;4.22;;
26319;SDS011;14024;52.226;5.200;2023-07-29T03:50:28;11.00;;;4.30;;
26319;SDS011;14024;52.226;5.200;2023-07-29T03:52:54;14.10;;;4.45;;
26319;SDS011;14024;52.226;5.200;2023-07-29T03:55:20;9.32;;;3.97;;
26319;SDS011;14024;52.226;5.200;2023-07-29T03:57:46;16.40;;;4.20;;
26319;SDS011;14024;52.226;5.200;2023-07-29T04:00:12;5.38;;;3.90;;
26319;SDS011;14024;52.226;5.200;2023-07-29T04:02:38;12.57;;;3.72;;
26319;SDS011;14024;52.226;5.200;2023-07-29T04:05:05;8.20;;;3.80;;
26319;SDS011;14024;52.226;5.200;2023-07-29T04:07:33;10.68;;;4.50;;
26319;SDS011;14024;52.226;5.200;2023-07-29T04:09:59;5.90;;;3.70;;
26319;SDS011;14024;52.226;5.200;2023-07-29T04:12:26;8.45;;;3.30;;
26319;SDS011;14024;52.226;5.200;2023-07-29T04:14:52;10.48;;;3.58;;
26319;SDS011;14024;52.226;5.200;2023-07-29T04:17:18;7.90;;;3.15;;
26319;SDS011;14024;52.226;5.200;2023-07-29T04:19:44;16.13;;;4.20;;
26319;SDS011;14024;52.226;5.200;2023-07-29T04:22:10;9.70;;;3.75;;
26319;SDS011;14024;52.226;5.200;2023-07-29T04:24:37;10.32;;;3.58;;
26319;SDS011;14024;52.226;5.200;2023-07-29T04:27:03;8.00;;;3.50;;
26319;SDS011;14024;52.226;5.200;2023-07-29T04:29:29;5.75;;;3.30;;
26319;SDS011;14024;52.226;5.200;2023-07-29T04:31:55;10.98;;;3.50;;
26319;SDS011;14024;52.226;5.200;2023-07-29T04:34:21;7.63;;;3.60;;
26319;SDS011;14024;52.226;5.200;2023-07-29T04:36:47;7.70;;;3.38;;
26319;SDS011;14024;52.226;5.200;2023-07-29T04:39:13;7.13;;;3.72;;
26319;SDS011;14024;52.226;5.200;2023-07-29T04:41:39;6.43;;;3.50;;
26319;SDS011;14024;52.226;5.200;2023-07-29T04:44:06;11.20;;;3.55;;
26319;SDS011;14024;52.226;5.200;2023-07-29T04:46:32;7.72;;;4.10;;
26319;SDS011;14024;52.226;5.200;2023-07-29T04:48:58;6.60;;;3.67;;
26319;SDS011;14024;52.226;5.200;2023-07-29T04:51:24;5.97;;;3.70;;
26319;SDS011;14024;52.226;5.200;2023-07-29T04:53:50;7.07;;;3.83;;
26319;SDS011;14024;52.226;5.200;2023-07-29T04:56:16;8.88;;;3.75;;
26319;SDS011;14024;52.226;5.200;2023-07-29T04:58:42;7.43;;;3.63;;
26319;SDS011;14024;52.226;5.200;2023-07-29T05:01:08;10.15;;;3.78;;
26319;SDS011;14024;52.226;5.200;2023-07-29T05:03:34;7.13;;;3.22;;
26319;SDS011;14024;52.226;5.200;2023-07-29T05:06:02;7.60;;;3.70;;
26319;SDS011;14024;52.226;5.200;2023-07-29T05:08:28;8.95;;;3.97;;
26319;SDS011;14024;52.226;5.200;2023-07-29T05:10:54;8.35;;;4.65;;
26319;SDS011;14024;52.226;5.200;2023-07-29T05:13:21;9.48;;;3.88;;
26319;SDS011;14024;52.226;5.200;2023-07-29T05:15:48;14.80;;;4.30;;
26319;SDS011;14024;52.226;5.200;2023-07-29T05:18:14;9.52;;;4.18;;
26319;SDS011;14024;52.226;5.200;2023-07-29T05:20:40;10.07;;;3.78;;
26319;SDS011;14024;52.226;5.200;2023-07-29T05:23:07;7.07;;;3.92;;
26319;SDS011;14024;52.226;5.200;2023-07-29T05:25:33;8.30;;;4.63;;
26319;SDS011;14024;52.226;5.200;2023-07-29T05:28:00;6.63;;;3.80;;
26319;SDS011;14024;52.226;5.200;2023-07-29T05:30:26;7.68;;;4.00;;
26319;SDS011;14024;52.226;5.200;2023-07-29T05:32:55;15.70;;;5.43;;
26319;SDS011;14024;52.226;5.200;2023-07-29T05:35:21;11.00;;;4.82;;
26319;SDS011;14024;52.226;5.200;2023-07-29T05:37:47;13.15;;;4.35;;
26319;SDS011;14024;52.226;5.200;2023-07-29T05:40:13;11.18;;;4.97;;
26319;SDS011;14024;52.226;5.200;2023-07-29T05:42:39;8.48;;;4.78;;
26319;SDS011;14024;52.226;5.200;2023-07-29T05:45:05;10.55;;;4.30;;
26319;SDS011;14024;52.226;5.200;2023-07-29T05:47:33;13.75;;;4.80;;
26319;SDS011;14024;52.226;5.200;2023-07-29T05:49:59;8.75;;;4.70;;
26319;SDS011;14024;52.226;5.200;2023-07-29T05:52:29;10.18;;;4.72;;
26319;SDS011;14024;52.226;5.200;2023-07-29T05:54:55;14.10;;;4.90;;
26319;SDS011;14024;52.226;5.200;2023-07-29T05:57:21;12.07;;;4.75;;
26319;SDS011;14024;52.226;5.200;2023-07-29T05:59:47;8.63;;;4.97;;
26319;SDS011;14024;52.226;5.200;2023-07-29T06:02:13;9.52;;;4.68;;
26319;SDS011;14024;52.226;5.200;2023-07-29T06:04:39;9.85;;;5.15;;
26319;SDS011;14024;52.226;5.200;2023-07-29T06:07:05;10.45;;;4.57;;
26319;SDS011;14024;52.226;5.200;2023-07-29T06:09:31;15.48;;;5.18;;
26319;SDS011;14024;52.226;5.200;2023-07-29T06:11:57;10.55;;;5.18;;
26319;SDS011;14024;52.226;5.200;2023-07-29T06:14:23;9.70;;;4.63;;
26319;SDS011;14024;52.226;5.200;2023-07-29T06:16:49;8.43;;;4.60;;
26319;SDS011;14024;52.226;5.200;2023-07-29T06:19:15;12.52;;;5.22;;
26319;SDS011;14024;52.226;5.200;2023-07-29T06:21:41;8.93;;;4.68;;
26319;SDS011;14024;52.226;5.200;2023-07-29T06:24:07;9.52;;;5.00;;
26319;SDS011;14024;52.226;5.200;2023-07-29T06:26:33;11.68;;;5.05;;
26319;SDS011;14024;52.226;5.200;2023-07-29T06:28:59;12.13;;;5.47;;
26319;SDS011;14024;52.226;5.200;2023-07-29T06:31:25;8.68;;;5.18;;
26319;SDS011;14024;52.226;5.200;2023-07-29T06:33:51;10.98;;;5.13;;
26319;SDS011;14024;52.226;5.200;2023-07-29T06:36:17;11.93;;;5.70;;
26319;SDS011;14024;52.226;5.200;2023-07-29T06:38:43;12.30;;;5.13;;
26319;SDS011;14024;52.226;5.200;2023-07-29T06:41:10;11.70;;;5.90;;
26319;SDS011;14024;52.226;5.200;2023-07-29T06:43:36;10.13;;;6.22;;
26319;SDS011;14024;52.226;5.200;2023-07-29T06:46:02;10.93;;;5.68;;
26319;SDS011;14024;52.226;5.200;2023-07-29T06:48:28;15.25;;;6.38;;
26319;SDS011;14024;52.226;5.200;2023-07-29T06:50:54;11.88;;;5.32;;
26319;SDS011;14024;52.226;5.200;2023-07-29T06:53:20;14.88;;;6.32;;
26319;SDS011;14024;52.226;5.200;2023-07-29T06:55:46;10.45;;;6.57;;
26319;SDS011;14024;52.226;5.200;2023-07-29T06:58:12;10.95;;;5.60;;
26319;SDS011;14024;52.226;5.200;2023-07-29T07:00:38;11.95;;;6.63;;
26319;SDS011;14024;52.226;5.200;2023-07-29T07:03:04;11.23;;;6.32;;
26319;SDS011;14024;52.226;5.200;2023-07-29T07:05:30;16.60;;;6.40;;
26319;SDS011;14024;52.226;5.200;2023-07-29T07:07:56;15.20;;;6.18;;
26319;SDS011;14024;52.226;5.200;2023-07-29T07:10:22;19.20;;;6.65;;
26319;SDS011;14024;52.226;5.200;2023-07-29T07:12:48;13.55;;;5.80;;
26319;SDS011;14024;52.226;5.200;2023-07-29T07:15:14;11.82;;;6.22;;
26319;SDS011;14024;52.226;5.200;2023-07-29T07:17:43;12.38;;;6.15;;
26319;SDS011;14024;52.226;5.200;2023-07-29T07:20:10;10.82;;;6.38;;
26319;SDS011;14024;52.226;5.200;2023-07-29T07:22:36;13.32;;;5.53;;
26319;SDS011;14024;52.226;5.200;2023-07-29T07:25:02;10.55;;;5.75;;
26319;SDS011;14024;52.226;5.200;2023-07-29T07:27:28;13.02;;;5.72;;
26319;SDS011;14024;52.226;5.200;2023-07-29T07:29:54;15.00;;;6.10;;
26319;SDS011;14024;52.226;5.200;2023-07-29T07:32:21;14.00;;;6.50;;
26319;SDS011;14024;52.226;5.200;2023-07-29T07:34:47;10.20;;;5.88;;
26319;SDS011;14024;52.226;5.200;2023-07-29T07:37:12;14.32;;;6.00;;
26319;SDS011;14024;52.226;5.200;2023-07-29T07:39:38;10.40;;;5.75;;
26319;SDS011;14024;52.226;5.200;2023-07-29T07:42:05;12.07;;;5.88;;
26319;SDS011;14024;52.226;5.200;2023-07-29T07:44:31;11.77;;;6.32;;
26319;SDS011;14024;52.226;5.200;2023-07-29T07:46:57;14.77;;;7.32;;
26319;SDS011;14024;52.226;5.200;2023-07-29T07:49:23;15.30;;;7.90;;
26319;SDS011;14024;52.226;5.200;2023-07-29T07:51:49;13.13;;;8.35;;
26319;SDS011;14024;52.226;5.200;2023-07-29T07:54:15;13.82;;;7.90;;
26319;SDS011;14024;52.226;5.200;2023-07-29T07:56:41;14.18;;;7.10;;
26319;SDS011;14024;52.226;5.200;2023-07-29T07:59:08;12.70;;;7.07;;
26319;SDS011;14024;52.226;5.200;2023-07-29T08:01:35;9.20;;;6.65;;
26319;SDS011;14024;52.226;5.200;2023-07-29T08:04:02;13.65;;;6.75;;
26319;SDS011;14024;52.226;5.200;2023-07-29T08:06:28;15.20;;;6.28;;
26319;SDS011;14024;52.226;5.200;2023-07-29T08:08:55;10.30;;;6.25;;
26319;SDS011;14024;52.226;5.200;2023-07-29T08:11:21;10.68;;;6.97;;
26319;SDS011;14024;52.226;5.200;2023-07-29T08:13:47;13.15;;;6.55;;
26319;SDS011;14024;52.226;5.200;2023-07-29T08:16:13;12.80;;;6.65;;
26319;SDS011;14024;52.226;5.200;2023-07-29T08:18:39;13.80;;;6.70;;
26319;SDS011;14024;52.226;5.200;2023-07-29T08:21:05;10.68;;;7.20;;
26319;SDS011;14024;52.226;5.200;2023-07-29T08:23:35;18.30;;;8.50;;
26319;SDS011;14024;52.226;5.200;2023-07-29T08:26:02;11.20;;;8.07;;
26319;SDS011;14024;52.226;5.200;2023-07-29T08:28:48;13.15;;;8.10;;
26319;SDS011;14024;52.226;5.200;2023-07-29T08:31:14;13.52;;;7.30;;
26319;SDS011;14024;52.226;5.200;2023-07-29T08:33:40;9.90;;;6.35;;
26319;SDS011;14024;52.226;5.200;2023-07-29T08:36:07;10.10;;;5.13;;
26319;SDS011;14024;52.226;5.200;2023-07-29T08:38:33;8.70;;;5.43;;
26319;SDS011;14024;52.226;5.200;2023-07-29T08:43:34;11.75;;;4.68;;
26319;SDS011;14024;52.226;5.200;2023-07-29T08:46:04;10.75;;;4.43;;
26319;SDS011;14024;52.226;5.200;2023-07-29T08:48:32;10.25;;;4.43;;
26319;SDS011;14024;52.226;5.200;2023-07-29T08:51:02;10.00;;;4.35;;
26319;SDS011;14024;52.226;5.200;2023-07-29T08:53:29;6.40;;;3.13;;
26319;SDS011;14024;52.226;5.200;2023-07-29T08:55:55;9.10;;;3.53;;
26319;SDS011;14024;52.226;5.200;2023-07-29T08:58:21;9.30;;;3.38;;
26319;SDS011;14024;52.226;5.200;2023-07-29T09:00:48;18.75;;;3.25;;
26319;SDS011;14024;52.226;5.200;2023-07-29T09:03:14;8.82;;;2.97;;
26319;SDS011;14024;52.226;5.200;2023-07-29T09:05:40;8.13;;;3.25;;
26319;SDS011;14024;52.226;5.200;2023-07-29T09:08:06;9.82;;;3.88;;
26319;SDS011;14024;52.226;5.200;2023-07-29T09:10:36;11.40;;;4.05;;
26319;SDS011;14024;52.226;5.200;2023-07-29T09:13:02;5.55;;;3.78;;
26319;SDS011;14024;52.226;5.200;2023-07-29T09:15:29;6.78;;;3.63;;
26319;SDS011;14024;52.226;5.200;2023-07-29T09:17:55;6.68;;;3.58;;
26319;SDS011;14024;52.226;5.200;2023-07-29T09:20:28;9.50;;;3.60;;
26319;SDS011;14024;52.226;5.200;2023-07-29T09:22:55;8.68;;;3.88;;
26319;SDS011;14024;52.226;5.200;2023-07-29T09:25:27;6.45;;;3.53;;
26319;SDS011;14024;52.226;5.200;2023-07-29T09:28:00;7.82;;;3.65;;
26319;SDS011;14024;52.226;5.200;2023-07-29T09:30:26;8.03;;;3.70;;
26319;SDS011;14024;52.226;5.200;2023-07-29T09:33:01;11.85;;;3.50;;
26319;SDS011;14024;52.226;5.200;2023-07-29T09:35:28;6.30;;;3.15;;
26319;SDS011;14024;52.226;5.200;2023-07-29T09:37:54;8.70;;;2.78;;
26319;SDS011;14024;52.226;5.200;2023-07-29T09:40:20;3.50;;;2.50;;
26319;SDS011;14024;52.226;5.200;2023-07-29T09:42:49;4.88;;;2.67;;
26319;SDS011;14024;52.226;5.200;2023-07-29T09:45:20;6.63;;;2.53;;
26319;SDS011;14024;52.226;5.200;2023-07-29T09:47:46;6.15;;;2.85;;
26319;SDS011;14024;52.226;5.200;2023-07-29T09:50:12;8.82;;;2.35;;
26319;SDS011;14024;52.226;5.200;2023-07-29T09:52:38;5.35;;;2.90;;
26319;SDS011;14024;52.226;5.200;2023-07-29T09:55:04;8.77;;;2.80;;
26319;SDS011;14024;52.226;5.200;2023-07-29T09:57:31;6.80;;;2.78;;
26319;SDS011;14024;52.226;5.200;2023-07-29T09:59:57;7.10;;;3.17;;
26319;SDS011;14024;52.226;5.200;2023-07-29T10:02:24;9.95;;;3.40;;
26319;SDS011;14024;52.226;5.200;2023-07-29T10:04:52;5.18;;;2.97;;
26319;SDS011;14024;52.226;5.200;2023-07-29T10:07:19;6.38;;;3.20;;
26319;SDS011;14024;52.226;5.200;2023-07-29T10:09:45;6.88;;;3.70;;
26319;SDS011;14024;52.226;5.200;2023-07-29T10:12:11;10.45;;;3.67;;
26319;SDS011;14024;52.226;5.200;2023-07-29T10:14:38;6.40;;;3.42;;
26319;SDS011;14024;52.226;5.200;2023-07-29T10:17:05;7.03;;;4.13;;
26319;SDS011;14024;52.226;5.200;2023-07-29T10:19:31;7.45;;;3.75;;
26319;SDS011;14024;52.226;5.200;2023-07-29T10:21:59;7.00;;;3.58;;
26319;SDS011;14024;52.226;5.200;2023-07-29T10:24:28;8.38;;;3.90;;
26319;SDS011;14024;52.226;5.200;2023-07-29T10:26:59;5.20;;;3.10;;
26319;SDS011;14024;52.226;5.200;2023-07-29T10:29:27;6.30;;;3.60;;
26319;SDS011;14024;52.226;5.200;2023-07-29T10:31:54;9.55;;;3.20;;
26319;SDS011;14024;52.226;5.200;2023-07-29T10:34:23;5.20;;;3.65;;
26319;SDS011;14024;52.226;5.200;2023-07-29T10:36:50;5.75;;;3.50;;
26319;SDS011;14024;52.226;5.200;2023-07-29T10:39:16;6.15;;;3.30;;
26319;SDS011;14024;52.226;5.200;2023-07-29T10:49:41;5.40;;;3.63;;
26319;SDS011;14024;52.226;5.200;2023-07-29T10:52:07;9.27;;;4.80;;
26319;SDS011;14024;52.226;5.200;2023-07-29T10:54:43;7.78;;;4.47;;
26319;SDS011;14024;52.226;5.200;2023-07-29T10:57:17;9.20;;;4.78;;
26319;SDS011;14024;52.226;5.200;2023-07-29T10:59:56;8.43;;;4.75;;
26319;SDS011;14024;52.226;5.200;2023-07-29T11:02:27;8.35;;;4.90;;
26319;SDS011;14024;52.226;5.200;2023-07-29T11:04:53;11.70;;;5.75;;
26319;SDS011;14024;52.226;5.200;2023-07-29T11:07:20;8.70;;;5.88;;
26319;SDS011;14024;52.226;5.200;2023-07-29T11:15:18;10.35;;;6.97;;
26319;SDS011;14024;52.226;5.200;2023-07-29T11:18:01;10.90;;;6.80;;
26319;SDS011;14024;52.226;5.200;2023-07-29T11:20:28;8.57;;;6.50;;
26319;SDS011;14024;52.226;5.200;2023-07-29T11:22:59;7.63;;;6.18;;
26319;SDS011;14024;52.226;5.200;2023-07-29T11:25:28;8.77;;;6.25;;
26319;SDS011;14024;52.226;5.200;2023-07-29T11:27:55;7.68;;;5.95;;
26319;SDS011;14024;52.226;5.200;2023-07-29T11:30:21;6.18;;;5.10;;
26319;SDS011;14024;52.226;5.200;2023-07-29T11:32:54;6.90;;;4.85;;
26319;SDS011;14024;52.226;5.200;2023-07-29T11:35:21;6.68;;;4.00;;
26319;SDS011;14024;52.226;5.200;2023-07-29T11:37:47;4.82;;;3.47;;
26319;SDS011;14024;52.226;5.200;2023-07-29T11:40:20;5.47;;;3.60;;
26319;SDS011;14024;52.226;5.200;2023-07-29T11:42:47;5.50;;;2.80;;
26319;SDS011;14024;52.226;5.200;2023-07-29T11:45:15;3.80;;;2.78;;
26319;SDS011;14024;52.226;5.200;2023-07-29T11:47:42;4.28;;;2.45;;
26319;SDS011;14024;52.226;5.200;2023-07-29T11:50:08;4.00;;;2.30;;
26319;SDS011;14024;52.226;5.200;2023-07-29T11:52:35;4.20;;;2.42;;
26319;SDS011;14024;52.226;5.200;2023-07-29T11:55:02;2.95;;;2.13;;
26319;SDS011;14024;52.226;5.200;2023-07-29T11:57:28;4.00;;;2.20;;
26319;SDS011;14024;52.226;5.200;2023-07-29T11:59:54;3.35;;;2.20;;
26319;SDS011;14024;52.226;5.200;2023-07-29T12:02:20;6.50;;;2.30;;
26319;SDS011;14024;52.226;5.200;2023-07-29T12:04:48;4.07;;;2.20;;
26319;SDS011;14024;52.226;5.200;2023-07-29T12:07:16;3.50;;;2.38;;
26319;SDS011;14024;52.226;5.200;2023-07-29T12:09:42;2.38;;;2.10;;
26319;SDS011;14024;52.226;5.200;2023-07-29T12:12:09;2.47;;;2.28;;
26319;SDS011;14024;52.226;5.200;2023-07-29T12:14:35;2.58;;;2.25;;
26319;SDS011;14024;52.226;5.200;2023-07-29T12:17:01;3.33;;;2.50;;
26319;SDS011;14024;52.226;5.200;2023-07-29T12:19:37;7.75;;;2.60;;
26319;SDS011;14024;52.226;5.200;2023-07-29T12:22:03;5.22;;;2.88;;
26319;SDS011;14024;52.226;5.200;2023-07-29T12:24:30;5.22;;;2.40;;
26319;SDS011;14024;52.226;5.200;2023-07-29T12:26:57;2.53;;;2.30;;
26319;SDS011;14024;52.226;5.200;2023-07-29T12:29:23;2.83;;;2.40;;
26319;SDS011;14024;52.226;5.200;2023-07-29T12:31:49;4.60;;;2.40;;
26319;SDS011;14024;52.226;5.200;2023-07-29T12:34:24;4.53;;;3.00;;
26319;SDS011;14024;52.226;5.200;2023-07-29T12:36:51;2.80;;;2.50;;
26319;SDS011;14024;52.226;5.200;2023-07-29T12:41:46;3.22;;;2.92;;
26319;SDS011;14024;52.226;5.200;2023-07-29T12:44:13;6.68;;;3.67;;
26319;SDS011;14024;52.226;5.200;2023-07-29T12:46:39;4.47;;;3.40;;
26319;SDS011;14024;52.226;5.200;2023-07-29T12:49:05;5.25;;;3.67;;
26319;SDS011;14024;52.226;5.200;2023-07-29T12:51:31;4.22;;;3.60;;
26319;SDS011;14024;52.226;5.200;2023-07-29T12:53:57;6.10;;;4.10;;
26319;SDS011;14024;52.226;5.200;2023-07-29T12:56:23;7.20;;;4.15;;
26319;SDS011;14024;52.226;5.200;2023-07-29T12:58:49;4.82;;;3.65;;
26319;SDS011;14024;52.226;5.200;2023-07-29T13:01:15;4.70;;;3.58;;
26319;SDS011;14024;52.226;5.200;2023-07-29T13:03:43;4.68;;;3.90;;
26319;SDS011;14024;52.226;5.200;2023-07-29T13:06:09;7.28;;;4.22;;
26319;SDS011;14024;52.226;5.200;2023-07-29T13:08:35;4.88;;;3.80;;
26319;SDS011;14024;52.226;5.200;2023-07-29T13:11:01;5.18;;;3.95;;
26319;SDS011;14024;52.226;5.200;2023-07-29T13:13:28;4.13;;;3.72;;
26319;SDS011;14024;52.226;5.200;2023-07-29T13:15:54;7.07;;;4.45;;
26319;SDS011;14024;52.226;5.200;2023-07-29T13:18:21;5.53;;;4.38;;
26319;SDS011;14024;52.226;5.200;2023-07-29T13:20:47;5.20;;;4.43;;
26319;SDS011;14024;52.226;5.200;2023-07-29T13:23:13;6.32;;;4.60;;
26319;SDS011;14024;52.226;5.200;2023-07-29T13:25:39;8.93;;;4.93;;
26319;SDS011;14024;52.226;5.200;2023-07-29T13:28:05;6.65;;;3.97;;
26319;SDS011;14024;52.226;5.200;2023-07-29T13:30:32;4.82;;;4.03;;
26319;SDS011;14024;52.226;5.200;2023-07-29T13:32:58;5.38;;;4.00;;
26319;SDS011;14024;52.226;5.200;2023-07-29T13:35:24;4.47;;;3.60;;
26319;SDS011;14024;52.226;5.200;2023-07-29T13:37:50;5.75;;;4.00;;
26319;SDS011;14024;52.226;5.200;2023-07-29T13:40:16;6.65;;;4.07;;
26319;SDS011;14024;52.226;5.200;2023-07-29T13:42:42;5.72;;;4.35;;
26319;SDS011;14024;52.226;5.200;2023-07-29T13:45:08;5.45;;;4.78;;
26319;SDS011;14024;52.226;5.200;2023-07-29T13:47:34;8.73;;;4.53;;
26319;SDS011;14024;52.226;5.200;2023-07-29T13:50:00;6.18;;;4.30;;
26319;SDS011;14024;52.226;5.200;2023-07-29T13:52:27;4.95;;;4.47;;
26319;SDS011;14024;52.226;5.200;2023-07-29T13:54:52;5.53;;;4.38;;
26319;SDS011;14024;52.226;5.200;2023-07-29T13:57:19;6.82;;;4.60;;
26319;SDS011;14024;52.226;5.200;2023-07-29T13:59:44;5.57;;;4.55;;
26319;SDS011;14024;52.226;5.200;2023-07-29T14:02:11;5.55;;;4.18;;
26319;SDS011;14024;52.226;5.200;2023-07-29T14:04:37;5.00;;;3.78;;
26319;SDS011;14024;52.226;5.200;2023-07-29T14:07:03;5.40;;;3.50;;
26319;SDS011;14024;52.226;5.200;2023-07-29T14:09:29;5.65;;;3.90;;
26319;SDS011;14024;52.226;5.200;2023-07-29T14:11:55;4.82;;;4.07;;
26319;SDS011;14024;52.226;5.200;2023-07-29T14:14:21;5.93;;;4.53;;
26319;SDS011;14024;52.226;5.200;2023-07-29T14:16:47;6.07;;;3.83;;
26319;SDS011;14024;52.226;5.200;2023-07-29T14:19:14;4.47;;;3.10;;
26319;SDS011;14024;52.226;5.200;2023-07-29T14:21:40;3.47;;;2.80;;
26319;SDS011;14024;52.226;5.200;2023-07-29T14:24:06;3.53;;;2.95;;
26319;SDS011;14024;52.226;5.200;2023-07-29T14:26:32;6.22;;;2.78;;
26319;SDS011;14024;52.226;5.200;2023-07-29T14:28:59;4.15;;;2.50;;
26319;SDS011;14024;52.226;5.200;2023-07-29T14:31:25;5.65;;;2.63;;
26319;SDS011;14024;52.226;5.200;2023-07-29T14:33:51;4.43;;;2.80;;
26319;SDS011;14024;52.226;5.200;2023-07-29T14:36:17;3.33;;;2.55;;
26319;SDS011;14024;52.226;5.200;2023-07-29T14:38:43;5.85;;;2.20;;
26319;SDS011;14024;52.226;5.200;2023-07-29T14:41:09;6.22;;;2.47;;
26319;SDS011;14024;52.226;5.200;2023-07-29T14:43:35;3.47;;;2.10;;
26319;SDS011;14024;52.226;5.200;2023-07-29T14:46:01;8.25;;;2.22;;
26319;SDS011;14024;52.226;5.200;2023-07-29T14:48:28;4.22;;;2.42;;
26319;SDS011;14024;52.226;5.200;2023-07-29T14:50:54;4.80;;;2.15;;
26319;SDS011;14024;52.226;5.200;2023-07-29T14:53:20;4.20;;;1.75;;
26319;SDS011;14024;52.226;5.200;2023-07-29T14:55:46;4.57;;;1.83;;
26319;SDS011;14024;52.226;5.200;2023-07-29T14:58:12;5.10;;;2.03;;
26319;SDS011;14024;52.226;5.200;2023-07-29T15:00:38;3.15;;;1.58;;
26319;SDS011;14024;52.226;5.200;2023-07-29T15:03:04;3.58;;;1.90;;